sensor_id;sensor_type;location;lat;lon;timestamp;pressure;altitude;pressure_sealevel;temperature;humidity
73558;BME280;61829;53.286;10.434;2022-11-15T00:00:29;100920.81;;;5.57;97.27
73558;BME280;61829;53.286;10.434;2022-11-15T00:03:03;100926.72;;;5.60;96.12
73558;BME280;61829;53.286;10.434;2022-11-15T00:05:34;100929.94;;;5.64;95.81
73558;BME280;61829;53.286;10.434;2022-11-15T00:08:00;100920.38;;;5.61;96.18
73558;BME280;61829;53.286;10.434;2022-11-15T00:10:26;100917.69;;;5.61;95.81
73558;BME280;61829;53.286;10.434;2022-11-15T00:12:52;100919.53;;;5.61;95.35
73558;BME280;61829;53.286;10.434;2022-11-15T00:15:18;100923.19;;;5.60;95.16
73558;BME280;61829;53.286;10.434;2022-11-15T00:17:48;100917.84;;;5.60;95.69
73558;BME280;61829;53.286;10.434;2022-11-15T00:20:14;100912.19;;;5.63;95.01
73558;BME280;61829;53.286;10.434;2022-11-15T00:22:40;100920.06;;;5.65;95.20
73558;BME280;61829;53.286;10.434;2022-11-15T00:25:07;100919.22;;;5.64;95.57
73558;BME280;61829;53.286;10.434;2022-11-15T00:27:33;100922.75;;;5.65;95.60
73558;BME280;61829;53.286;10.434;2022-11-15T00:29:59;100929.09;;;5.63;94.63
73558;BME280;61829;53.286;10.434;2022-11-15T00:32:25;100917.53;;;5.63;95.05
73558;BME280;61829;53.286;10.434;2022-11-15T00:34:51;100917.53;;;5.63;95.03
73558;BME280;61829;53.286;10.434;2022-11-15T00:37:17;100932.19;;;5.59;95.01
73558;BME280;61829;53.286;10.434;2022-11-15T00:39:43;100919.69;;;5.59;94.52
73558;BME280;61829;53.286;10.434;2022-11-15T00:42:28;100913.19;;;5.62;95.02
73558;BME280;61829;53.286;10.434;2022-11-15T00:44:54;100924.41;;;5.66;94.90
73558;BME280;61829;53.286;10.434;2022-11-15T00:47:20;100917.53;;;5.63;95.18
73558;BME280;61829;53.286;10.434;2022-11-15T00:49:46;100922.22;;;5.61;94.56
73558;BME280;61829;53.286;10.434;2022-11-15T00:52:12;100924.19;;;5.59;95.13
73558;BME280;61829;53.286;10.434;2022-11-15T00:54:38;100923.03;;;5.61;95.08
73558;BME280;61829;53.286;10.434;2022-11-15T00:57:04;100921.50;;;5.59;94.81
73558;BME280;61829;53.286;10.434;2022-11-15T00:59:30;100921.13;;;5.54;94.28
73558;BME280;61829;53.286;10.434;2022-11-15T01:01:56;100921.28;;;5.52;94.15
73558;BME280;61829;53.286;10.434;2022-11-15T01:04:23;100916.06;;;5.51;94.49
73558;BME280;61829;53.286;10.434;2022-11-15T01:06:49;100918.91;;;5.49;94.75
73558;BME280;61829;53.286;10.434;2022-11-15T01:09:15;100916.69;;;5.45;95.00
73558;BME280;61829;53.286;10.434;2022-11-15T01:11:42;100912.47;;;5.42;94.80
73558;BME280;61829;53.286;10.434;2022-11-15T01:14:09;100925.28;;;5.38;94.28
73558;BME280;61829;53.286;10.434;2022-11-15T01:16:35;100928.56;;;5.32;94.65
73558;BME280;61829;53.286;10.434;2022-11-15T01:19:01;100917.19;;;5.30;95.03
73558;BME280;61829;53.286;10.434;2022-11-15T01:21:27;100914.81;;;5.27;94.38
73558;BME280;61829;53.286;10.434;2022-11-15T01:23:55;100899.91;;;5.25;94.84
73558;BME280;61829;53.286;10.434;2022-11-15T01:26:23;100913.56;;;5.22;94.68
73558;BME280;61829;53.286;10.434;2022-11-15T01:28:50;100912.16;;;5.17;95.02
73558;BME280;61829;53.286;10.434;2022-11-15T01:31:18;100912.31;;;5.16;94.56
73558;BME280;61829;53.286;10.434;2022-11-15T01:33:45;100905.56;;;5.12;94.92
73558;BME280;61829;53.286;10.434;2022-11-15T01:36:16;100898.16;;;5.06;95.47
73558;BME280;61829;53.286;10.434;2022-11-15T01:38:43;100893.13;;;5.03;95.48
73558;BME280;61829;53.286;10.434;2022-11-15T01:41:17;100885.41;;;5.00;95.02
73558;BME280;61829;53.286;10.434;2022-11-15T01:43:46;100892.03;;;4.95;94.85
73558;BME280;61829;53.286;10.434;2022-11-15T01:48:49;100886.19;;;4.82;95.27
73558;BME280;61829;53.286;10.434;2022-11-15T01:51:20;100882.50;;;4.83;94.84
73558;BME280;61829;53.286;10.434;2022-11-15T01:53:52;100879.44;;;4.78;95.29
73558;BME280;61829;53.286;10.434;2022-11-15T01:56:25;100884.78;;;4.78;95.58
73558;BME280;61829;53.286;10.434;2022-11-15T01:58:55;100883.81;;;4.79;95.94
73558;BME280;61829;53.286;10.434;2022-11-15T02:01:24;100886.00;;;4.84;96.82
73558;BME280;61829;53.286;10.434;2022-11-15T02:06:21;100890.63;;;4.91;96.89
73558;BME280;61829;53.286;10.434;2022-11-15T02:11:52;100887.97;;;4.91;97.52
73558;BME280;61829;53.286;10.434;2022-11-15T02:14:21;100885.28;;;4.91;96.99
73558;BME280;61829;53.286;10.434;2022-11-15T02:25:36;100854.66;;;4.95;96.62
73558;BME280;61829;53.286;10.434;2022-11-15T02:39:24;100856.88;;;5.00;96.52
73558;BME280;61829;53.286;10.434;2022-11-15T02:44:43;100854.34;;;4.99;96.33
73558;BME280;61829;53.286;10.434;2022-11-15T02:47:12;100847.47;;;4.96;96.04
73558;BME280;61829;53.286;10.434;2022-11-15T02:49:52;100852.13;;;4.94;96.27
73558;BME280;61829;53.286;10.434;2022-11-15T02:52:22;100862.78;;;4.94;95.91
73558;BME280;61829;53.286;10.434;2022-11-15T02:54:56;100867.44;;;4.92;96.12
73558;BME280;61829;53.286;10.434;2022-11-15T03:00:05;100862.56;;;4.87;96.31
73558;BME280;61829;53.286;10.434;2022-11-15T03:05:37;100861.84;;;4.85;95.63
73558;BME280;61829;53.286;10.434;2022-11-15T03:10:46;100860.75;;;4.78;96.38
73558;BME280;61829;53.286;10.434;2022-11-15T03:13:27;100847.25;;;4.80;96.36
73558;BME280;61829;53.286;10.434;2022-11-15T03:16:09;100833.22;;;4.78;96.45
73558;BME280;61829;53.286;10.434;2022-11-15T03:18:41;100837.72;;;4.77;96.40
73558;BME280;61829;53.286;10.434;2022-11-15T03:21:10;100840.97;;;4.71;96.50
73558;BME280;61829;53.286;10.434;2022-11-15T03:23:39;100832.44;;;4.67;96.42
73558;BME280;61829;53.286;10.434;2022-11-15T03:26:07;100836.22;;;4.65;96.47
73558;BME280;61829;53.286;10.434;2022-11-15T03:28:40;100826.97;;;4.59;95.67
73558;BME280;61829;53.286;10.434;2022-11-15T03:31:08;100832.75;;;4.55;96.01
73558;BME280;61829;53.286;10.434;2022-11-15T03:33:57;100827.84;;;4.50;95.42
73558;BME280;61829;53.286;10.434;2022-11-15T03:36:26;100829.25;;;4.44;95.41
73558;BME280;61829;53.286;10.434;2022-11-15T03:38:56;100827.03;;;4.40;95.29
73558;BME280;61829;53.286;10.434;2022-11-15T03:41:35;100831.84;;;4.36;95.58
73558;BME280;61829;53.286;10.434;2022-11-15T03:44:34;100832.25;;;4.32;95.23
73558;BME280;61829;53.286;10.434;2022-11-15T03:47:12;100829.03;;;4.28;95.64
73558;BME280;61829;53.286;10.434;2022-11-15T03:49:49;100823.13;;;4.24;95.61
73558;BME280;61829;53.286;10.434;2022-11-15T03:52:21;100830.59;;;4.21;95.41
73558;BME280;61829;53.286;10.434;2022-11-15T03:54:54;100831.88;;;4.17;95.64
73558;BME280;61829;53.286;10.434;2022-11-15T03:57:20;100830.16;;;4.16;95.93
73558;BME280;61829;53.286;10.434;2022-11-15T03:59:47;100833.69;;;4.16;96.53
73558;BME280;61829;53.286;10.434;2022-11-15T04:02:13;100834.66;;;4.15;96.49
73558;BME280;61829;53.286;10.434;2022-11-15T04:04:39;100835.66;;;4.14;96.93
73558;BME280;61829;53.286;10.434;2022-11-15T04:07:05;100837.22;;;4.17;96.88
73558;BME280;61829;53.286;10.434;2022-11-15T04:09:32;100837.88;;;4.19;97.28
73558;BME280;61829;53.286;10.434;2022-11-15T04:11:57;100827.78;;;4.22;97.16
73558;BME280;61829;53.286;10.434;2022-11-15T04:14:24;100832.13;;;4.23;97.87
73558;BME280;61829;53.286;10.434;2022-11-15T04:16:50;100832.00;;;4.25;97.81
73558;BME280;61829;53.286;10.434;2022-11-15T04:19:16;100833.53;;;4.27;98.65
73558;BME280;61829;53.286;10.434;2022-11-15T04:22:00;100832.50;;;4.38;99.04
73558;BME280;61829;53.286;10.434;2022-11-15T04:24:45;100824.50;;;4.38;98.81
73558;BME280;61829;53.286;10.434;2022-11-15T04:27:11;100822.97;;;4.36;98.00
73558;BME280;61829;53.286;10.434;2022-11-15T04:29:38;100827.47;;;4.35;98.59
73558;BME280;61829;53.286;10.434;2022-11-15T04:32:06;100822.13;;;4.35;97.85
73558;BME280;61829;53.286;10.434;2022-11-15T04:34:32;100831.84;;;4.36;98.25
73558;BME280;61829;53.286;10.434;2022-11-15T04:36:58;100824.66;;;4.37;98.81
73558;BME280;61829;53.286;10.434;2022-11-15T04:39:41;100830.13;;;4.35;97.66
73558;BME280;61829;53.286;10.434;2022-11-15T04:42:08;100831.13;;;4.34;97.60
73558;BME280;61829;53.286;10.434;2022-11-15T04:44:34;100826.09;;;4.31;97.37
73558;BME280;61829;53.286;10.434;2022-11-15T04:47:01;100839.53;;;4.30;97.79
73558;BME280;61829;53.286;10.434;2022-11-15T04:49:27;100835.34;;;4.27;97.59
73558;BME280;61829;53.286;10.434;2022-11-15T04:51:53;100827.34;;;4.27;98.25
73558;BME280;61829;53.286;10.434;2022-11-15T04:54:19;100830.00;;;4.27;97.67
73558;BME280;61829;53.286;10.434;2022-11-15T04:56:45;100832.84;;;4.25;98.30
73558;BME280;61829;53.286;10.434;2022-11-15T04:59:12;100832.28;;;4.22;97.68
73558;BME280;61829;53.286;10.434;2022-11-15T05:01:38;100832.41;;;4.20;97.69
73558;BME280;61829;53.286;10.434;2022-11-15T05:04:05;100827.38;;;4.17;97.14
73558;BME280;61829;53.286;10.434;2022-11-15T05:06:50;100833.00;;;4.14;97.16
73558;BME280;61829;53.286;10.434;2022-11-15T05:09:20;100849.13;;;4.13;96.75
73558;BME280;61829;53.286;10.434;2022-11-15T05:11:47;100837.91;;;4.09;96.96
73558;BME280;61829;53.286;10.434;2022-11-15T05:14:13;100832.69;;;4.08;97.00
73558;BME280;61829;53.286;10.434;2022-11-15T05:16:40;100828.66;;;4.03;95.76
73558;BME280;61829;53.286;10.434;2022-11-15T05:19:06;100834.28;;;4.00;96.13
73558;BME280;61829;53.286;10.434;2022-11-15T05:21:33;100832.72;;;3.98;96.51
73558;BME280;61829;53.286;10.434;2022-11-15T05:24:00;100820.69;;;3.94;95.28
73558;BME280;61829;53.286;10.434;2022-11-15T05:26:26;100819.13;;;3.91;95.69
73558;BME280;61829;53.286;10.434;2022-11-15T05:28:58;100819.44;;;3.88;95.76
73558;BME280;61829;53.286;10.434;2022-11-15T05:31:25;100821.38;;;3.86;95.39
73558;BME280;61829;53.286;10.434;2022-11-15T05:33:52;100818.28;;;3.81;96.40
73558;BME280;61829;53.286;10.434;2022-11-15T05:36:33;100819.84;;;3.74;95.81
73558;BME280;61829;53.286;10.434;2022-11-15T05:39:01;100818.44;;;3.70;96.66
73558;BME280;61829;53.286;10.434;2022-11-15T05:41:34;100819.28;;;3.70;96.94
73558;BME280;61829;53.286;10.434;2022-11-15T05:44:02;100817.44;;;3.71;96.66
73558;BME280;61829;53.286;10.434;2022-11-15T05:46:32;100817.03;;;3.75;97.00
73558;BME280;61829;53.286;10.434;2022-11-15T05:49:00;100819.00;;;3.73;96.33
73558;BME280;61829;53.286;10.434;2022-11-15T05:51:27;100810.16;;;3.73;96.90
73558;BME280;61829;53.286;10.434;2022-11-15T05:53:56;100813.38;;;3.76;96.26
73558;BME280;61829;53.286;10.434;2022-11-15T05:56:24;100820.53;;;3.76;97.51
73558;BME280;61829;53.286;10.434;2022-11-15T05:58:53;100820.53;;;3.76;96.79
73558;BME280;61829;53.286;10.434;2022-11-15T06:01:19;100824.91;;;3.77;96.92
73558;BME280;61829;53.286;10.434;2022-11-15T06:03:45;100825.44;;;3.80;97.33
73558;BME280;61829;53.286;10.434;2022-11-15T06:06:11;100828.81;;;3.82;97.09
73558;BME280;61829;53.286;10.434;2022-11-15T06:08:38;100834.72;;;3.86;97.12
73558;BME280;61829;53.286;10.434;2022-11-15T06:11:05;100837.22;;;3.88;97.22
73558;BME280;61829;53.286;10.434;2022-11-15T06:13:32;100848.59;;;3.90;97.62
73558;BME280;61829;53.286;10.434;2022-11-15T06:15:58;100838.75;;;3.90;96.77
73558;BME280;61829;53.286;10.434;2022-11-15T06:18:25;100849.13;;;3.93;97.11
73558;BME280;61829;53.286;10.434;2022-11-15T06:20:51;100848.19;;;3.94;97.13
73558;BME280;61829;53.286;10.434;2022-11-15T06:23:17;100854.22;;;3.96;96.49
73558;BME280;61829;53.286;10.434;2022-11-15T06:25:43;100854.22;;;3.96;96.71
73558;BME280;61829;53.286;10.434;2022-11-15T06:28:10;100853.22;;;3.97;97.05
73558;BME280;61829;53.286;10.434;2022-11-15T06:30:36;100852.94;;;4.00;96.86
73558;BME280;61829;53.286;10.434;2022-11-15T06:33:04;100857.44;;;4.00;96.38
73558;BME280;61829;53.286;10.434;2022-11-15T06:35:33;100866.13;;;4.02;97.15
73558;BME280;61829;53.286;10.434;2022-11-15T06:38:07;100865.00;;;4.04;96.94
73558;BME280;61829;53.286;10.434;2022-11-15T06:40:34;100856.69;;;4.08;97.86
73558;BME280;61829;53.286;10.434;2022-11-15T06:43:04;100850.13;;;4.12;97.56
73558;BME280;61829;53.286;10.434;2022-11-15T06:45:30;100855.88;;;4.17;97.97
73558;BME280;61829;53.286;10.434;2022-11-15T06:47:58;100859.63;;;4.24;98.84
73558;BME280;61829;53.286;10.434;2022-11-15T06:50:24;100860.88;;;4.39;99.70
73558;BME280;61829;53.286;10.434;2022-11-15T06:52:50;100858.19;;;4.49;100.00
73558;BME280;61829;53.286;10.434;2022-11-15T06:55:16;100862.34;;;4.61;99.87
73558;BME280;61829;53.286;10.434;2022-11-15T06:57:47;100868.38;;;4.73;100.00
73558;BME280;61829;53.286;10.434;2022-11-15T07:00:14;100857.50;;;4.84;100.00
73558;BME280;61829;53.286;10.434;2022-11-15T07:02:40;100861.13;;;4.93;100.00
73558;BME280;61829;53.286;10.434;2022-11-15T07:05:06;100867.41;;;5.02;100.00
73558;BME280;61829;53.286;10.434;2022-11-15T07:07:33;100857.97;;;5.07;100.00
73558;BME280;61829;53.286;10.434;2022-11-15T07:09:58;100860.56;;;5.17;100.00
73558;BME280;61829;53.286;10.434;2022-11-15T07:12:25;100861.38;;;5.27;100.00
73558;BME280;61829;53.286;10.434;2022-11-15T07:14:50;100866.41;;;5.30;100.00
73558;BME280;61829;53.286;10.434;2022-11-15T07:17:17;100868.88;;;5.42;100.00
73558;BME280;61829;53.286;10.434;2022-11-15T07:19:43;100870.94;;;5.48;100.00
73558;BME280;61829;53.286;10.434;2022-11-15T07:22:10;100872.16;;;5.53;100.00
73558;BME280;61829;53.286;10.434;2022-11-15T07:24:36;100871.25;;;5.62;100.00
73558;BME280;61829;53.286;10.434;2022-11-15T07:27:02;100861.66;;;5.70;99.53
73558;BME280;61829;53.286;10.434;2022-11-15T07:29:28;100866.53;;;5.74;99.53
73558;BME280;61829;53.286;10.434;2022-11-15T07:31:54;100863.94;;;5.82;99.34
73558;BME280;61829;53.286;10.434;2022-11-15T07:34:20;100865.97;;;5.89;99.14
73558;BME280;61829;53.286;10.434;2022-11-15T07:36:46;100872.97;;;5.99;98.51
73558;BME280;61829;53.286;10.434;2022-11-15T07:39:13;100868.44;;;6.18;98.71
73558;BME280;61829;53.286;10.434;2022-11-15T07:41:40;100882.09;;;6.33;98.50
73558;BME280;61829;53.286;10.434;2022-11-15T07:44:06;100882.38;;;6.47;98.70
73558;BME280;61829;53.286;10.434;2022-11-15T07:46:32;100883.00;;;6.67;98.12
73558;BME280;61829;53.286;10.434;2022-11-15T07:49:01;100885.59;;;6.77;97.22
73558;BME280;61829;53.286;10.434;2022-11-15T07:51:27;100889.47;;;6.83;96.65
73558;BME280;61829;53.286;10.434;2022-11-15T07:53:53;100895.16;;;6.88;95.75
73558;BME280;61829;53.286;10.434;2022-11-15T07:56:19;100885.97;;;6.90;95.19
73558;BME280;61829;53.286;10.434;2022-11-15T07:58:46;100885.00;;;6.91;95.01
73558;BME280;61829;53.286;10.434;2022-11-15T08:01:12;100883.19;;;7.00;94.86
73558;BME280;61829;53.286;10.434;2022-11-15T08:03:38;100881.94;;;7.20;95.03
73558;BME280;61829;53.286;10.434;2022-11-15T08:06:05;100880.84;;;7.39;93.55
73558;BME280;61829;53.286;10.434;2022-11-15T08:08:31;100886.38;;;7.46;92.71
73558;BME280;61829;53.286;10.434;2022-11-15T08:10:58;100881.38;;;7.51;91.94
73558;BME280;61829;53.286;10.434;2022-11-15T08:13:24;100879.88;;;7.57;91.33
73558;BME280;61829;53.286;10.434;2022-11-15T08:15:50;100874.69;;;7.63;91.01
73558;BME280;61829;53.286;10.434;2022-11-15T08:18:16;100870.16;;;7.64;90.55
73558;BME280;61829;53.286;10.434;2022-11-15T08:20:43;100871.88;;;7.73;90.31
73558;BME280;61829;53.286;10.434;2022-11-15T08:23:11;100871.38;;;7.86;89.65
73558;BME280;61829;53.286;10.434;2022-11-15T08:25:38;100872.53;;;7.92;89.40
73558;BME280;61829;53.286;10.434;2022-11-15T08:28:05;100879.09;;;8.05;89.45
73558;BME280;61829;53.286;10.434;2022-11-15T08:30:37;100869.38;;;8.13;88.88
73558;BME280;61829;53.286;10.434;2022-11-15T08:33:03;100869.88;;;8.16;88.29
73558;BME280;61829;53.286;10.434;2022-11-15T08:35:30;100868.19;;;8.23;88.43
73558;BME280;61829;53.286;10.434;2022-11-15T08:37:56;100869.69;;;8.34;88.19
73558;BME280;61829;53.286;10.434;2022-11-15T08:40:23;100859.66;;;8.44;86.77
73558;BME280;61829;53.286;10.434;2022-11-15T08:42:49;100859.63;;;8.52;86.75
73558;BME280;61829;53.286;10.434;2022-11-15T08:45:15;100849.19;;;8.58;86.79
73558;BME280;61829;53.286;10.434;2022-11-15T08:47:41;100856.41;;;8.65;86.58
73558;BME280;61829;53.286;10.434;2022-11-15T08:50:07;100855.91;;;8.70;86.13
73558;BME280;61829;53.286;10.434;2022-11-15T08:52:33;100855.56;;;8.73;85.84
73558;BME280;61829;53.286;10.434;2022-11-15T08:54:59;100850.31;;;8.80;85.31
73558;BME280;61829;53.286;10.434;2022-11-15T08:57:28;100851.84;;;8.82;85.24
73558;BME280;61829;53.286;10.434;2022-11-15T08:59:56;100854.34;;;8.84;85.33
73558;BME280;61829;53.286;10.434;2022-11-15T09:02:22;100867.09;;;8.90;85.30
73558;BME280;61829;53.286;10.434;2022-11-15T09:04:49;100864.75;;;8.95;85.15
73558;BME280;61829;53.286;10.434;2022-11-15T09:07:15;100862.03;;;8.95;85.40
73558;BME280;61829;53.286;10.434;2022-11-15T09:09:41;100866.72;;;9.01;84.74
73558;BME280;61829;53.286;10.434;2022-11-15T09:12:07;100869.19;;;9.11;84.67
73558;BME280;61829;53.286;10.434;2022-11-15T09:14:33;100872.88;;;9.18;84.86
73558;BME280;61829;53.286;10.434;2022-11-15T09:17:00;100860.38;;;9.25;83.72
73558;BME280;61829;53.286;10.434;2022-11-15T09:19:26;100861.06;;;9.27;83.36
73558;BME280;61829;53.286;10.434;2022-11-15T09:21:53;100865.78;;;9.25;83.30
73558;BME280;61829;53.286;10.434;2022-11-15T09:24:19;100869.34;;;9.17;83.78
73558;BME280;61829;53.286;10.434;2022-11-15T09:26:45;100873.22;;;9.15;83.63
73558;BME280;61829;53.286;10.434;2022-11-15T09:29:11;100869.19;;;9.11;84.54
73558;BME280;61829;53.286;10.434;2022-11-15T09:31:37;100879.59;;;9.14;84.35
73558;BME280;61829;53.286;10.434;2022-11-15T09:34:03;100875.91;;;9.15;84.24
73558;BME280;61829;53.286;10.434;2022-11-15T09:36:29;100873.72;;;9.18;84.55
73558;BME280;61829;53.286;10.434;2022-11-15T09:38:57;100876.88;;;9.22;83.86
73558;BME280;61829;53.286;10.434;2022-11-15T09:50:09;100868.66;;;9.55;84.61
73558;BME280;61829;53.286;10.434;2022-11-15T09:52:36;100865.38;;;9.67;83.92
73558;BME280;61829;53.286;10.434;2022-11-15T09:55:05;100863.97;;;9.80;83.55
73558;BME280;61829;53.286;10.434;2022-11-15T09:57:32;100860.19;;;9.89;83.63
73558;BME280;61829;53.286;10.434;2022-11-15T10:05:47;100861.19;;;10.11;82.76
73558;BME280;61829;53.286;10.434;2022-11-15T10:08:42;100867.88;;;10.15;83.69
73558;BME280;61829;53.286;10.434;2022-11-15T10:11:16;100856.88;;;10.25;83.63
73558;BME280;61829;53.286;10.434;2022-11-15T10:13:45;100845.41;;;10.31;83.40
73558;BME280;61829;53.286;10.434;2022-11-15T10:24:12;100839.19;;;10.60;82.01
73558;BME280;61829;53.286;10.434;2022-11-15T10:26:48;100840.50;;;10.64;82.73
73558;BME280;61829;53.286;10.434;2022-11-15T10:29:21;100835.38;;;10.69;82.73
73558;BME280;61829;53.286;10.434;2022-11-15T10:31:48;100835.69;;;10.74;81.81
73558;BME280;61829;53.286;10.434;2022-11-15T10:34:18;100837.00;;;10.78;82.26
73558;BME280;61829;53.286;10.434;2022-11-15T10:36:58;100834.75;;;10.82;82.11
73558;BME280;61829;53.286;10.434;2022-11-15T10:39:25;100835.03;;;10.87;81.39
73558;BME280;61829;53.286;10.434;2022-11-15T10:41:53;100832.78;;;10.91;81.69
73558;BME280;61829;53.286;10.434;2022-11-15T10:44:29;100830.38;;;10.96;81.32
73558;BME280;61829;53.286;10.434;2022-11-15T10:49:26;100821.16;;;11.05;81.06
73558;BME280;61829;53.286;10.434;2022-11-15T10:54:44;100809.69;;;11.18;81.05
73558;BME280;61829;53.286;10.434;2022-11-15T10:57:32;100799.72;;;11.33;80.47
73558;BME280;61829;53.286;10.434;2022-11-15T11:00:03;100795.47;;;11.45;79.48
73558;BME280;61829;53.286;10.434;2022-11-15T11:05:02;100797.38;;;11.66;79.67
73558;BME280;61829;53.286;10.434;2022-11-15T11:07:31;100790.78;;;11.76;78.75
73558;BME280;61829;53.286;10.434;2022-11-15T11:10:19;100791.69;;;11.83;77.79
73558;BME280;61829;53.286;10.434;2022-11-15T11:12:45;100788.25;;;11.89;77.88
73558;BME280;61829;53.286;10.434;2022-11-15T11:15:13;100790.44;;;12.00;76.99
73558;BME280;61829;53.286;10.434;2022-11-15T11:20:33;100780.75;;;12.12;77.78
73558;BME280;61829;53.286;10.434;2022-11-15T11:23:20;100782.25;;;12.22;77.42
73558;BME280;61829;53.286;10.434;2022-11-15T11:28:58;100776.03;;;12.21;76.56
73558;BME280;61829;53.286;10.434;2022-11-15T11:31:46;100770.63;;;12.21;76.53
73558;BME280;61829;53.286;10.434;2022-11-15T11:37:17;100776.81;;;12.15;76.50
73558;BME280;61829;53.286;10.434;2022-11-15T11:50:44;100754.38;;;12.15;76.91
73558;BME280;61829;53.286;10.434;2022-11-15T11:53:25;100752.28;;;12.17;77.45
73558;BME280;61829;53.286;10.434;2022-11-15T11:55:55;100754.19;;;12.23;77.26
73558;BME280;61829;53.286;10.434;2022-11-15T11:58:34;100753.38;;;12.22;76.83
73558;BME280;61829;53.286;10.434;2022-11-15T12:01:11;100749.00;;;12.21;76.90
73558;BME280;61829;53.286;10.434;2022-11-15T12:09:33;100741.75;;;12.22;77.73
73558;BME280;61829;53.286;10.434;2022-11-15T12:12:30;100742.56;;;12.22;77.94
73558;BME280;61829;53.286;10.434;2022-11-15T12:15:00;100743.41;;;12.23;78.42
73558;BME280;61829;53.286;10.434;2022-11-15T12:17:31;100738.84;;;12.23;78.45
73558;BME280;61829;53.286;10.434;2022-11-15T12:19:59;100735.94;;;12.25;78.19
73558;BME280;61829;53.286;10.434;2022-11-15T12:25:08;100737.63;;;12.26;77.82
73558;BME280;61829;53.286;10.434;2022-11-15T12:31:14;100724.69;;;12.21;78.58
73558;BME280;61829;53.286;10.434;2022-11-15T12:40:39;100743.22;;;12.24;77.96
73558;BME280;61829;53.286;10.434;2022-11-15T12:43:39;100735.50;;;12.21;77.81
73558;BME280;61829;53.286;10.434;2022-11-15T12:46:12;100727.41;;;12.21;77.93
73558;BME280;61829;53.286;10.434;2022-11-15T12:51:04;100729.06;;;12.22;77.90
73558;BME280;61829;53.286;10.434;2022-11-15T12:53:32;100723.66;;;12.22;77.96
73558;BME280;61829;53.286;10.434;2022-11-15T13:19:46;100681.16;;;12.03;78.85
73558;BME280;61829;53.286;10.434;2022-11-15T13:22:14;100675.75;;;12.03;78.50
73558;BME280;61829;53.286;10.434;2022-11-15T13:25:00;100666.78;;;11.96;78.85
73558;BME280;61829;53.286;10.434;2022-11-15T13:27:27;100660.34;;;11.97;78.91
73558;BME280;61829;53.286;10.434;2022-11-15T13:29:53;100657.22;;;11.93;79.22
73558;BME280;61829;53.286;10.434;2022-11-15T13:32:19;100665.31;;;11.93;79.51
73558;BME280;61829;53.286;10.434;2022-11-15T13:34:47;100662.59;;;11.93;79.36
73558;BME280;61829;53.286;10.434;2022-11-15T13:39:48;100673.81;;;11.90;79.95
73558;BME280;61829;53.286;10.434;2022-11-15T13:42:16;100685.66;;;11.89;79.96
73558;BME280;61829;53.286;10.434;2022-11-15T13:45:01;100667.97;;;11.86;80.43
73558;BME280;61829;53.286;10.434;2022-11-15T13:47:28;100659.47;;;11.89;80.08
73558;BME280;61829;53.286;10.434;2022-11-15T13:49:59;100656.13;;;11.87;80.12
73558;BME280;61829;53.286;10.434;2022-11-15T13:52:34;100655.47;;;11.85;80.28
73558;BME280;61829;53.286;10.434;2022-11-15T13:55:37;100653.38;;;11.81;80.48
73558;BME280;61829;53.286;10.434;2022-11-15T13:58:04;100649.19;;;11.78;80.43
73558;BME280;61829;53.286;10.434;2022-11-15T14:00:41;100647.72;;;11.76;80.44
73558;BME280;61829;53.286;10.434;2022-11-15T14:03:19;100645.84;;;11.76;80.32
73558;BME280;61829;53.286;10.434;2022-11-15T14:08:42;100649.13;;;11.72;80.42
73558;BME280;61829;53.286;10.434;2022-11-15T14:11:23;100635.00;;;11.69;80.75
73558;BME280;61829;53.286;10.434;2022-11-15T14:14:20;100633.72;;;11.65;80.92
73558;BME280;61829;53.286;10.434;2022-11-15T14:16:51;100648.66;;;11.61;81.29
73558;BME280;61829;53.286;10.434;2022-11-15T14:24:45;100648.41;;;11.56;81.44
73558;BME280;61829;53.286;10.434;2022-11-15T14:27:28;100645.69;;;11.56;81.45
73558;BME280;61829;53.286;10.434;2022-11-15T14:29:55;100640.31;;;11.56;81.44
73558;BME280;61829;53.286;10.434;2022-11-15T14:32:23;100633.00;;;11.50;81.64
73558;BME280;61829;53.286;10.434;2022-11-15T14:34:58;100632.34;;;11.48;81.72
73558;BME280;61829;53.286;10.434;2022-11-15T14:41:18;100618.81;;;11.41;82.31
73558;BME280;61829;53.286;10.434;2022-11-15T14:43:44;100623.13;;;11.36;82.62
73558;BME280;61829;53.286;10.434;2022-11-15T14:46:11;100631.78;;;11.31;82.60
73558;BME280;61829;53.286;10.434;2022-11-15T14:48:37;100621.41;;;11.28;82.78
73558;BME280;61829;53.286;10.434;2022-11-15T14:51:11;100615.97;;;11.21;82.87
73558;BME280;61829;53.286;10.434;2022-11-15T14:53:37;100616.97;;;11.20;83.08
73558;BME280;61829;53.286;10.434;2022-11-15T14:56:04;100624.19;;;11.13;83.47
73558;BME280;61829;53.286;10.434;2022-11-15T14:58:29;100623.75;;;11.10;83.37
73558;BME280;61829;53.286;10.434;2022-11-15T15:00:56;100615.38;;;11.05;83.64
73558;BME280;61829;53.286;10.434;2022-11-15T15:03:22;100611.88;;;11.04;83.43
73558;BME280;61829;53.286;10.434;2022-11-15T15:05:49;100619.03;;;10.97;83.77
73558;BME280;61829;53.286;10.434;2022-11-15T15:08:15;100616.09;;;10.92;84.30
73558;BME280;61829;53.286;10.434;2022-11-15T15:10:44;100608.75;;;10.86;84.07
73558;BME280;61829;53.286;10.434;2022-11-15T15:13:19;100621.34;;;10.78;84.64
73558;BME280;61829;53.286;10.434;2022-11-15T15:15:47;100611.53;;;10.71;84.82
73558;BME280;61829;53.286;10.434;2022-11-15T15:18:13;100609.78;;;10.63;85.30
73558;BME280;61829;53.286;10.434;2022-11-15T15:20:41;100609.34;;;10.60;85.25
73558;BME280;61829;53.286;10.434;2022-11-15T15:23:18;100606.94;;;10.50;85.97
73558;BME280;61829;53.286;10.434;2022-11-15T15:25:46;100616.59;;;10.44;85.92
73558;BME280;61829;53.286;10.434;2022-11-15T15:28:20;100622.56;;;10.40;86.12